Time;durP1;ratioP1;P1;durP2;ratioP2;P2;SDS_P1;SDS_P2;PMS_P1;PMS_P2;Temp;Humidity;BMP_temperature;BMP_pressure;BME280_temperature;BME280_humidity;BME280_pressure;Samples;Min_cycle;Max_cycle;Signal;HPM_P1;HPM_P2
2023/12/21 00:01:38;;;;;;;3.30;2.00;;;7.10;68.90;;;;;;5037880;28;20029;-60
2023/12/21 00:04:04;;;;;;;6.50;2.45;;;7.00;68.90;;;;;;5041773;28;20055;-60
2023/12/21 00:06:30;;;;;;;5.07;1.63;;;7.10;69.00;;;;;;5028311;28;20102;-61
2023/12/21 00:08:56;;;;;;;3.92;2.03;;;7.00;69.00;;;;;;5037799;28;20037;-60
2023/12/21 00:11:22;;;;;;;4.72;2.10;;;7.00;69.00;;;;;;5039588;28;20040;-60
2023/12/21 00:13:47;;;;;;;7.68;2.53;;;7.00;69.10;;;;;;5034713;28;20554;-60
2023/12/21 00:16:14;;;;;;;3.10;1.75;;;7.00;69.20;;;;;;5042049;28;20376;-61
2023/12/21 00:18:40;;;;;;;5.75;1.85;;;7.00;69.20;;;;;;5034585;28;20589;-61
2023/12/21 00:21:06;;;;;;;3.33;1.90;;;7.00;69.20;;;;;;5036738;28;20068;-61
2023/12/21 00:23:33;;;;;;;2.75;1.73;;;6.90;69.30;;;;;;5036859;28;20079;-61
2023/12/21 00:25:59;;;;;;;6.38;1.95;;;6.90;69.30;;;;;;5023622;28;21238;-61
2023/12/21 00:28:25;;;;;;;4.95;1.98;;;6.90;69.50;;;;;;5041804;28;20033;-61
2023/12/21 00:30:51;;;;;;;3.03;1.70;;;6.90;69.60;;;;;;5037210;28;20056;-60
2023/12/21 00:33:16;;;;;;;3.63;1.60;;;6.80;69.70;;;;;;5039795;28;20029;-60
2023/12/21 00:35:42;;;;;;;2.95;1.42;;;6.80;69.90;;;;;;5037498;28;20871;-62
2023/12/21 00:38:07;;;;;;;6.90;1.90;;;6.80;69.90;;;;;;5032755;28;20116;-61
2023/12/21 00:40:33;;;;;;;3.72;1.70;;;6.80;70.10;;;;;;5038598;28;20035;-61
2023/12/21 00:42:59;;;;;;;4.35;1.70;;;6.80;70.10;;;;;;5036657;28;20128;-60
2023/12/21 00:45:25;;;;;;;3.55;1.90;;;6.80;70.20;;;;;;5034436;28;20419;-62
2023/12/21 00:47:51;;;;;;;4.03;1.83;;;6.80;70.20;;;;;;5037978;28;20033;-61
2023/12/21 00:50:17;;;;;;;3.47;2.00;;;6.70;70.20;;;;;;5038884;28;20037;-62
2023/12/21 00:52:43;;;;;;;2.40;1.63;;;6.70;70.20;;;;;;5037506;28;20045;-61
2023/12/21 00:55:08;;;;;;;4.93;1.60;;;6.70;70.60;;;;;;5041198;28;20028;-61
2023/12/21 00:57:34;;;;;;;2.80;1.48;;;6.70;70.40;;;;;;5040240;28;20529;-60
2023/12/21 01:00:00;;;;;;;6.28;2.60;;;6.70;70.50;;;;;;5038962;28;20534;-60
2023/12/21 01:02:25;;;;;;;4.45;1.60;;;6.70;70.60;;;;;;5039691;28;20033;-60
2023/12/21 01:04:51;;;;;;;6.03;1.67;;;6.70;70.90;;;;;;5035311;28;20025;-61
2023/12/21 01:07:17;;;;;;;3.75;1.83;;;6.60;70.80;;;;;;5041048;28;20036;-60
2023/12/21 01:09:43;;;;;;;4.88;1.85;;;6.60;70.70;;;;;;5034353;28;20036;-60
2023/12/21 01:12:08;;;;;;;4.10;1.90;;;6.60;70.90;;;;;;5042070;28;20029;-60
2023/12/21 01:14:34;;;;;;;3.58;1.42;;;6.60;70.90;;;;;;5035226;28;20026;-61
2023/12/21 01:17:00;;;;;;;3.70;1.73;;;6.60;70.90;;;;;;5038058;28;20123;-60
2023/12/21 01:19:26;;;;;;;4.60;1.90;;;6.60;71.20;;;;;;5029813;28;22446;-60
2023/12/21 01:21:53;;;;;;;4.50;1.80;;;6.50;71.20;;;;;;5035417;28;20083;-61
2023/12/21 01:24:19;;;;;;;2.58;1.38;;;6.50;71.20;;;;;;5036783;28;20069;-61
2023/12/21 01:26:44;;;;;;;3.00;1.50;;;6.50;71.50;;;;;;5036098;28;20069;-61
2023/12/21 01:29:10;;;;;;;4.63;1.70;;;6.50;71.30;;;;;;5035320;28;20160;-61
2023/12/21 01:31:36;;;;;;;3.28;1.65;;;6.50;71.40;;;;;;4997034;28;20017;-61
2023/12/21 01:34:05;;;;;;;3.53;1.50;;;6.50;71.50;;;;;;5041705;28;21225;-60
2023/12/21 01:36:30;;;;;;;4.30;1.67;;;6.50;71.60;;;;;;5038254;28;20024;-60
2023/12/21 01:38:56;;;;;;;2.05;1.40;;;6.50;71.90;;;;;;5022723;28;20442;-62
2023/12/21 01:41:22;;;;;;;5.68;1.40;;;6.40;72.20;;;;;;5039464;28;20029;-61
2023/12/21 01:43:48;;;;;;;3.97;1.35;;;6.40;71.80;;;;;;5040058;28;20060;-60
2023/12/21 01:46:14;;;;;;;3.40;1.55;;;6.40;71.90;;;;;;5042582;28;20041;-61
2023/12/21 01:48:41;;;;;;;3.60;1.50;;;6.40;71.80;;;;;;5043357;28;20029;-60
2023/12/21 01:51:08;;;;;;;4.10;1.85;;;6.40;71.80;;;;;;5039304;28;20036;-62
2023/12/21 01:53:34;;;;;;;3.53;1.65;;;6.40;71.80;;;;;;5036776;28;20045;-61
2023/12/21 01:56:01;;;;;;;2.75;1.27;;;6.30;71.90;;;;;;5042237;28;20075;-61
2023/12/21 01:58:27;;;;;;;3.40;1.40;;;6.40;72.30;;;;;;5033290;28;20743;-61
2023/12/21 02:00:56;;;;;;;3.25;1.60;;;6.30;72.40;;;;;;5038446;28;20064;-61
2023/12/21 02:03:23;;;;;;;5.03;2.00;;;6.30;72.50;;;;;;5039132;28;20768;-62
2023/12/21 02:05:49;;;;;;;4.07;1.60;;;6.30;72.60;;;;;;5040908;28;20377;-61
2023/12/21 02:08:15;;;;;;;3.65;2.20;;;6.20;72.50;;;;;;5019764;28;20399;-61
2023/12/21 02:10:41;;;;;;;2.30;1.40;;;6.30;72.80;;;;;;5042726;28;20021;-62
2023/12/21 02:13:06;;;;;;;4.90;1.98;;;6.20;72.90;;;;;;5039023;28;20112;-61
2023/12/21 02:15:32;;;;;;;3.60;2.03;;;6.20;73.50;;;;;;5038962;28;20064;-60
2023/12/21 02:18:02;;;;;;;3.72;1.48;;;6.20;73.00;;;;;;5038806;28;20025;-61
2023/12/21 02:20:28;;;;;;;2.00;1.50;;;6.20;73.40;;;;;;5037655;28;20100;-60
2023/12/21 02:22:59;;;;;;;3.92;1.45;;;6.20;73.50;;;;;;5039326;28;20080;-61
2023/12/21 02:25:25;;;;;;;2.28;1.52;;;6.20;73.40;;;;;;5040768;28;20056;-60
2023/12/21 02:27:51;;;;;;;5.40;1.48;;;6.20;73.50;;;;;;5044205;28;20033;-61
2023/12/21 02:30:17;;;;;;;2.85;1.50;;;6.20;73.60;;;;;;5040865;28;20029;-61
2023/12/21 02:32:43;;;;;;;1.90;1.30;;;6.20;73.50;;;;;;5041225;28;20786;-62
2023/12/21 02:35:09;;;;;;;3.08;1.50;;;6.20;73.70;;;;;;5042176;28;20041;-61
2023/12/21 02:37:35;;;;;;;3.75;1.58;;;6.20;74.10;;;;;;5021526;28;20523;-62
2023/12/21 02:40:01;;;;;;;4.15;1.65;;;6.20;74.20;;;;;;5036252;28;20048;-61
2023/12/21 02:42:26;;;;;;;3.45;1.38;;;6.20;74.20;;;;;;5035438;28;20029;-61
2023/12/21 02:45:00;;;;;;;2.28;1.20;;;6.20;74.00;;;;;;5031491;28;20025;-60
2023/12/21 02:47:26;;;;;;;3.95;1.50;;;6.20;74.10;;;;;;5041317;28;20029;-62
2023/12/21 02:49:53;;;;;;;2.88;1.27;;;6.20;74.60;;;;;;5043141;28;20044;-62
2023/12/21 02:52:19;;;;;;;3.78;1.48;;;6.20;74.20;;;;;;5038344;28;20554;-62
2023/12/21 02:54:44;;;;;;;4.72;1.65;;;6.20;74.40;;;;;;5020220;28;20395;-62
2023/12/21 02:57:10;;;;;;;3.75;1.50;;;6.20;74.60;;;;;;5041369;28;20535;-61
2023/12/21 02:59:35;;;;;;;2.95;1.60;;;6.20;74.40;;;;;;5041387;28;20075;-61
2023/12/21 03:02:01;;;;;;;3.28;1.77;;;6.20;74.60;;;;;;5035828;28;20080;-61
2023/12/21 03:04:27;;;;;;;1.92;1.38;;;6.20;75.10;;;;;;5036842;28;20037;-61
2023/12/21 03:06:53;;;;;;;3.13;1.20;;;6.20;74.80;;;;;;5036414;28;20068;-62
2023/12/21 03:09:19;;;;;;;4.60;1.67;;;6.30;74.80;;;;;;5042636;28;20395;-61
2023/12/21 03:11:45;;;;;;;2.45;1.73;;;6.30;75.00;;;;;;5035875;28;20026;-60
2023/12/21 03:14:10;;;;;;;2.50;1.42;;;6.30;75.20;;;;;;5041129;28;20048;-61
2023/12/21 03:16:36;;;;;;;1.55;1.30;;;6.30;75.10;;;;;;5038412;28;20542;-60
2023/12/21 03:19:02;;;;;;;2.33;1.20;;;6.40;75.30;;;;;;5035712;28;20482;-62
2023/12/21 03:21:27;;;;;;;3.17;1.40;;;6.40;75.20;;;;;;5039129;28;20060;-60
2023/12/21 03:23:53;;;;;;;2.42;1.33;;;6.40;75.40;;;;;;5041710;28;20135;-61
2023/12/21 03:26:18;;;;;;;2.28;1.20;;;6.40;75.20;;;;;;5034964;28;20076;-61
2023/12/21 03:28:45;;;;;;;1.35;1.20;;;6.40;74.70;;;;;;5040178;28;20030;-62
2023/12/21 03:31:11;;;;;;;1.67;1.25;;;6.40;74.70;;;;;;5038746;28;20033;-61
2023/12/21 03:33:37;;;;;;;2.15;1.40;;;6.50;74.80;;;;;;5028911;28;20025;-61
2023/12/21 03:36:04;;;;;;;1.40;1.30;;;6.50;75.20;;;;;;5039068;28;20039;-61
2023/12/21 03:38:30;;;;;;;2.55;1.20;;;6.50;74.80;;;;;;5018962;28;20040;-61
2023/12/21 03:40:55;;;;;;;1.42;1.05;;;6.50;74.60;;;;;;5038083;28;20054;-61
2023/12/21 03:43:21;;;;;;;1.98;1.13;;;6.50;75.00;;;;;;5035986;28;20032;-61
2023/12/21 03:45:47;;;;;;;1.80;1.30;;;6.50;74.60;;;;;;4948085;28;20107;-61
2023/12/21 03:48:13;;;;;;;1.95;1.50;;;6.50;75.10;;;;;;5039771;28;20033;-61
2023/12/21 03:50:39;;;;;;;3.22;1.83;;;6.50;74.80;;;;;;5036945;28;20025;-61
2023/12/21 03:53:07;;;;;;;1.52;1.42;;;6.50;75.20;;;;;;5036994;28;20045;-61
2023/12/21 03:55:33;;;;;;;2.20;1.30;;;6.50;75.20;;;;;;5033580;28;20860;-61
2023/12/21 03:57:58;;;;;;;1.30;1.20;;;6.60;74.90;;;;;;5036688;28;20029;-61
2023/12/21 04:00:25;;;;;;;1.38;1.27;;;6.60;75.10;;;;;;5040368;28;20103;-60
2023/12/21 04:02:50;;;;;;;4.57;1.13;;;6.60;75.10;;;;;;5033380;28;20336;-61
2023/12/21 04:05:16;;;;;;;1.30;1.20;;;6.60;74.90;;;;;;5039660;28;20135;-61
2023/12/21 04:07:42;;;;;;;2.33;1.40;;;6.60;75.20;;;;;;5039803;28;20395;-61
2023/12/21 04:10:08;;;;;;;1.35;1.20;;;6.60;75.30;;;;;;5036826;28;20040;-62
2023/12/21 04:12:33;;;;;;;0.98;0.95;;;6.60;75.10;;;;;;5034256;28;20207;-61
2023/12/21 04:14:59;;;;;;;1.55;1.45;;;6.60;74.90;;;;;;5037047;28;20024;-61
2023/12/21 04:17:25;;;;;;;1.10;1.00;;;6.60;75.50;;;;;;5032571;28;20033;-62
2023/12/21 04:19:51;;;;;;;1.00;0.90;;;6.60;75.00;;;;;;5032842;28;20036;-62
2023/12/21 04:22:17;;;;;;;1.25;1.00;;;6.60;74.90;;;;;;5036798;28;20033;-61
2023/12/21 04:24:44;;;;;;;2.60;1.20;;;6.60;74.80;;;;;;5018080;28;20043;-61
2023/12/21 04:27:10;;;;;;;1.42;1.20;;;6.60;74.90;;;;;;5019300;28;20044;-61
2023/12/21 04:29:37;;;;;;;1.30;1.20;;;6.60;74.90;;;;;;5038229;28;20076;-61
2023/12/21 04:32:03;;;;;;;1.35;1.00;;;6.60;75.30;;;;;;5037733;28;20510;-62
2023/12/21 04:34:29;;;;;;;3.13;1.52;;;6.60;75.10;;;;;;5040179;28;20032;-61
2023/12/21 04:36:54;;;;;;;1.50;1.20;;;6.60;74.90;;;;;;5037344;28;20044;-61
2023/12/21 04:39:20;;;;;;;1.10;1.00;;;6.60;75.70;;;;;;5020181;28;20029;-61
2023/12/21 04:41:46;;;;;;;1.00;0.88;;;6.70;75.20;;;;;;5032732;28;20091;-60
2023/12/21 04:44:11;;;;;;;0.90;0.90;;;6.70;75.10;;;;;;5040220;28;20047;-60
2023/12/21 04:46:38;;;;;;;1.75;1.02;;;6.70;75.60;;;;;;4944719;28;20025;-60
2023/12/21 04:49:03;;;;;;;1.55;1.30;;;6.70;75.20;;;;;;5032111;28;20115;-61
2023/12/21 04:51:30;;;;;;;1.30;1.20;;;6.70;75.20;;;;;;5043333;28;20395;-61
2023/12/21 04:53:56;;;;;;;1.23;1.17;;;6.70;75.30;;;;;;5038873;28;20053;-61
2023/12/21 04:56:21;;;;;;;2.35;1.98;;;6.70;75.40;;;;;;5013763;28;20067;-61
2023/12/21 04:58:47;;;;;;;1.50;1.40;;;6.70;75.40;;;;;;5038126;28;20061;-62
2023/12/21 05:01:13;;;;;;;1.83;1.50;;;6.70;75.20;;;;;;5036866;28;20056;-62
2023/12/21 05:03:38;;;;;;;1.88;1.30;;;6.70;75.30;;;;;;5037137;28;20049;-61
2023/12/21 05:06:04;;;;;;;1.20;1.10;;;6.70;75.40;;;;;;5035126;28;20403;-62
2023/12/21 05:08:30;;;;;;;2.45;1.10;;;6.70;75.80;;;;;;5039529;28;20079;-61
2023/12/21 05:10:56;;;;;;;1.13;1.02;;;6.70;75.10;;;;;;5041001;28;20048;-61
2023/12/21 05:13:22;;;;;;;1.40;1.30;;;6.70;75.50;;;;;;5016159;28;20120;-61
2023/12/21 05:15:47;;;;;;;1.30;1.20;;;6.70;75.50;;;;;;5039591;28;20144;-60
2023/12/21 05:18:13;;;;;;;1.25;1.15;;;6.70;75.20;;;;;;5044495;28;20136;-62
2023/12/21 05:20:38;;;;;;;1.52;1.25;;;6.80;75.40;;;;;;5024188;28;20051;-62
2023/12/21 05:23:04;;;;;;;1.60;1.25;;;6.70;75.50;;;;;;5036768;28;20071;-62
2023/12/21 05:25:30;;;;;;;1.30;1.20;;;6.80;75.30;;;;;;5038367;28;20541;-61
2023/12/21 05:27:56;;;;;;;1.55;1.45;;;6.80;75.10;;;;;;5045462;28;20021;-62
2023/12/21 05:30:22;;;;;;;1.17;1.10;;;6.80;75.20;;;;;;5022813;28;20048;-61
2023/12/21 05:32:47;;;;;;;1.45;1.35;;;6.80;75.10;;;;;;5039076;28;20029;-61
2023/12/21 05:35:13;;;;;;;2.17;1.48;;;6.80;75.20;;;;;;5040014;28;20034;-62
2023/12/21 05:37:39;;;;;;;1.70;1.60;;;6.80;75.00;;;;;;5040914;28;20021;-62
2023/12/21 05:40:06;;;;;;;1.65;1.33;;;6.80;75.00;;;;;;5035269;28;20768;-60
2023/12/21 05:42:33;;;;;;;2.88;1.40;;;6.80;75.40;;;;;;5041586;28;20021;-61
2023/12/21 05:45:01;;;;;;;1.48;1.38;;;6.80;75.20;;;;;;4973929;28;20030;-64
2023/12/21 05:47:27;;;;;;;2.38;1.67;;;6.80;75.20;;;;;;5037031;28;20044;-62
2023/12/21 05:49:53;;;;;;;1.30;1.20;;;6.80;75.30;;;;;;5035023;28;20709;-61
2023/12/21 05:52:19;;;;;;;1.40;1.27;;;6.80;75.10;;;;;;5037607;28;20032;-61
2023/12/21 05:54:44;;;;;;;2.17;1.20;;;6.80;75.30;;;;;;5038393;28;20855;-61
2023/12/21 05:57:10;;;;;;;1.30;1.20;;;6.80;75.30;;;;;;5039421;28;20522;-62
2023/12/21 05:59:37;;;;;;;1.58;1.20;;;6.80;75.20;;;;;;5033500;28;20607;-62
2023/12/21 06:02:03;;;;;;;1.75;1.10;;;6.90;75.30;;;;;;5039999;28;20025;-62
2023/12/21 06:04:30;;;;;;;1.00;1.00;;;6.90;75.20;;;;;;5020770;28;20719;-62
2023/12/21 06:06:56;;;;;;;1.40;1.02;;;6.90;75.10;;;;;;5038516;28;20040;-62
2023/12/21 06:09:22;;;;;;;1.40;1.30;;;6.90;75.00;;;;;;5041531;28;20328;-62
2023/12/21 06:11:48;;;;;;;1.70;1.38;;;6.90;75.00;;;;;;5037394;28;20487;-61
2023/12/21 06:14:14;;;;;;;1.65;1.25;;;6.90;75.10;;;;;;5040992;28;20033;-60
2023/12/21 06:16:39;;;;;;;1.35;1.20;;;6.90;75.10;;;;;;5032603;28;20682;-60
2023/12/21 06:19:09;;;;;;;1.80;1.27;;;6.90;75.00;;;;;;5038633;28;20029;-62
2023/12/21 06:21:38;;;;;;;1.15;1.05;;;6.90;75.10;;;;;;5034787;28;20021;-62
2023/12/21 06:24:05;;;;;;;2.75;1.30;;;6.90;75.40;;;;;;5037344;28;20056;-61
2023/12/21 06:26:31;;;;;;;1.20;1.10;;;6.90;75.10;;;;;;5034500;28;20014;-61
2023/12/21 06:28:56;;;;;;;2.15;1.13;;;6.90;75.00;;;;;;5039398;28;20025;-61
2023/12/21 06:31:23;;;;;;;1.30;1.20;;;6.90;75.00;;;;;;5040226;28;20106;-62
2023/12/21 06:33:49;;;;;;;1.33;1.20;;;6.90;75.00;;;;;;5043924;28;20091;-61
2023/12/21 06:36:15;;;;;;;1.25;1.10;;;6.90;75.40;;;;;;5037463;28;20021;-62
2023/12/21 06:38:41;;;;;;;1.20;1.10;;;6.90;75.10;;;;;;5035324;28;20032;-61
2023/12/21 06:41:08;;;;;;;1.83;1.10;;;6.90;75.10;;;;;;5039158;28;20370;-62
2023/12/21 06:43:33;;;;;;;1.30;1.20;;;6.90;75.20;;;;;;5040919;28;20057;-62
2023/12/21 06:46:01;;;;;;;1.45;1.35;;;6.90;75.40;;;;;;4951394;28;20040;-62
2023/12/21 06:48:27;;;;;;;0.98;0.90;;;6.90;75.40;;;;;;5040398;28;20494;-61
2023/12/21 06:50:53;;;;;;;1.30;1.20;;;6.90;75.20;;;;;;5037924;28;20032;-61
2023/12/21 06:53:18;;;;;;;2.05;1.27;;;6.90;75.10;;;;;;5041043;28;20057;-61
2023/12/21 06:55:45;;;;;;;1.33;1.02;;;6.90;75.30;;;;;;5041446;28;20060;-61
2023/12/21 06:58:11;;;;;;;1.13;1.02;;;7.00;75.30;;;;;;5039725;28;20038;-62
2023/12/21 07:00:37;;;;;;;1.45;1.00;;;7.00;75.30;;;;;;5035024;28;21501;-61
2023/12/21 07:03:03;;;;;;;1.17;1.05;;;7.00;75.50;;;;;;5019629;28;20049;-61
2023/12/21 07:05:29;;;;;;;0.85;0.85;;;7.00;75.30;;;;;;5040508;28;20029;-61
2023/12/21 07:07:54;;;;;;;1.23;1.00;;;7.00;75.20;;;;;;5039414;28;20029;-62
2023/12/21 07:10:23;;;;;;;1.00;1.00;;;7.00;75.30;;;;;;5034755;28;20029;-62
2023/12/21 07:12:49;;;;;;;1.30;1.20;;;7.00;75.20;;;;;;5031691;28;20578;-63
2023/12/21 07:15:16;;;;;;;1.52;1.10;;;7.00;75.20;;;;;;5023579;28;20021;-61
2023/12/21 07:17:42;;;;;;;1.08;0.98;;;7.00;75.10;;;;;;5038074;28;20388;-63
2023/12/21 07:20:08;;;;;;;0.90;0.90;;;7.00;75.20;;;;;;5036609;28;20029;-63
2023/12/21 07:22:34;;;;;;;1.05;1.00;;;7.00;75.10;;;;;;5039196;28;20041;-64
2023/12/21 07:25:00;;;;;;;1.15;1.05;;;7.00;75.20;;;;;;5043253;28;20079;-64
2023/12/21 07:27:25;;;;;;;1.10;1.00;;;7.10;75.30;;;;;;5038293;28;20032;-65
2023/12/21 07:29:51;;;;;;;1.27;0.90;;;7.10;75.50;;;;;;5034881;28;20040;-63
2023/12/21 07:32:17;;;;;;;1.10;1.00;;;7.10;75.60;;;;;;5031482;28;20035;-62
2023/12/21 07:34:42;;;;;;;1.40;1.30;;;7.10;75.40;;;;;;5038888;28;20059;-63
2023/12/21 07:37:09;;;;;;;2.03;1.10;;;7.20;75.30;;;;;;5038210;28;20029;-63
2023/12/21 07:39:35;;;;;;;1.20;1.05;;;7.20;75.30;;;;;;5036964;28;20026;-62
2023/12/21 07:42:01;;;;;;;1.50;1.40;;;7.20;75.30;;;;;;5030184;28;20029;-62
2023/12/21 07:44:27;;;;;;;1.20;1.10;;;7.20;75.50;;;;;;5034493;28;20037;-63
2023/12/21 07:46:54;;;;;;;1.77;1.40;;;7.20;75.40;;;;;;4958089;28;20037;-62
2023/12/21 07:49:20;;;;;;;2.60;1.42;;;7.20;75.30;;;;;;5033660;28;20399;-63
2023/12/21 07:51:46;;;;;;;1.30;1.20;;;7.20;75.40;;;;;;5035883;28;20026;-64
2023/12/21 07:54:12;;;;;;;1.23;1.13;;;7.20;75.30;;;;;;5040450;28;20060;-64
2023/12/21 07:56:38;;;;;;;1.23;1.00;;;7.20;75.30;;;;;;5034605;28;20033;-64
2023/12/21 07:59:06;;;;;;;1.30;1.20;;;7.30;75.30;;;;;;5039668;28;20037;-64
2023/12/21 08:01:32;;;;;;;1.58;1.10;;;7.30;75.50;;;;;;5041105;28;20033;-63
2023/12/21 08:03:59;;;;;;;0.90;0.90;;;7.30;75.30;;;;;;5042671;28;20112;-63
2023/12/21 08:06:25;;;;;;;0.80;0.80;;;7.30;75.20;;;;;;5035806;28;20035;-62
2023/12/21 08:08:54;;;;;;;1.48;1.38;;;7.30;75.30;;;;;;5038058;28;20479;-62
2023/12/21 08:11:22;;;;;;;1.73;1.10;;;7.30;75.20;;;;;;5035841;28;20108;-64
2023/12/21 08:13:48;;;;;;;1.80;1.15;;;7.30;75.30;;;;;;5040003;28;20112;-63
2023/12/21 08:16:14;;;;;;;1.10;1.10;;;7.30;75.20;;;;;;5017995;28;20133;-64
2023/12/21 08:18:40;;;;;;;1.65;1.15;;;7.40;75.30;;;;;;5025061;28;20037;-65
2023/12/21 08:21:06;;;;;;;1.60;1.40;;;7.40;75.20;;;;;;5037440;28;20013;-63
2023/12/21 08:23:31;;;;;;;1.83;1.38;;;7.40;75.10;;;;;;5033821;28;20041;-65
2023/12/21 08:25:57;;;;;;;1.30;1.20;;;7.40;75.10;;;;;;5035108;28;20025;-64
2023/12/21 08:28:25;;;;;;;1.38;1.27;;;7.40;75.10;;;;;;5038724;28;20439;-65
2023/12/21 08:30:51;;;;;;;2.05;1.05;;;7.40;75.10;;;;;;5034460;28;20071;-64
2023/12/21 08:33:17;;;;;;;3.38;1.10;;;7.40;75.10;;;;;;5035716;28;20509;-64
2023/12/21 08:35:42;;;;;;;1.05;0.90;;;7.50;75.10;;;;;;5035732;28;20937;-64
2023/12/21 08:38:08;;;;;;;0.80;0.80;;;7.50;75.10;;;;;;5040303;28;20487;-65
2023/12/21 08:40:35;;;;;;;1.40;1.02;;;7.50;75.00;;;;;;5031538;28;20033;-65
2023/12/21 08:43:02;;;;;;;1.08;1.00;;;7.50;75.00;;;;;;5040412;28;20041;-64
2023/12/21 08:45:28;;;;;;;0.93;0.93;;;7.60;75.10;;;;;;4980877;28;20033;-63
2023/12/21 08:47:55;;;;;;;2.55;1.10;;;7.60;75.00;;;;;;5039238;28;20033;-64
2023/12/21 08:50:21;;;;;;;1.10;1.00;;;7.60;75.10;;;;;;5043792;28;20056;-65
2023/12/21 08:52:46;;;;;;;1.00;0.90;;;7.60;75.10;;;;;;5042383;28;20045;-63
2023/12/21 08:55:12;;;;;;;0.88;0.88;;;7.60;75.00;;;;;;5042091;28;20245;-63
2023/12/21 08:57:37;;;;;;;2.38;0.95;;;7.60;75.00;;;;;;5040264;28;20029;-66
2023/12/21 09:00:12;;;;;;;1.88;1.20;;;7.70;75.00;;;;;;5036414;28;20041;-62
2023/12/21 09:02:38;;;;;;;1.95;1.10;;;7.70;75.00;;;;;;5037565;28;20452;-63
2023/12/21 09:05:05;;;;;;;0.93;0.90;;;7.70;74.90;;;;;;5037642;28;20064;-65
2023/12/21 09:07:32;;;;;;;0.77;0.75;;;7.70;75.00;;;;;;5019501;28;20057;-65
2023/12/21 09:09:59;;;;;;;0.70;0.70;;;7.70;74.90;;;;;;5046205;28;20116;-65
2023/12/21 09:12:25;;;;;;;1.00;0.80;;;7.70;74.90;;;;;;5039472;28;20025;-64
2023/12/21 09:14:52;;;;;;;1.23;1.13;;;7.80;74.90;;;;;;5037854;28;20087;-63
2023/12/21 09:17:19;;;;;;;0.90;0.73;;;7.80;75.00;;;;;;5025616;28;20713;-64
2023/12/21 09:19:45;;;;;;;2.53;0.90;;;7.80;75.10;;;;;;5043084;28;20031;-62
2023/12/21 09:22:11;;;;;;;1.58;1.10;;;7.90;75.10;;;;;;5041001;28;20037;-65
2023/12/21 09:24:38;;;;;;;1.25;0.88;;;7.90;75.10;;;;;;5039435;28;20396;-66
2023/12/21 09:27:04;;;;;;;0.90;0.80;;;7.90;75.20;;;;;;5043849;28;20029;-63
2023/12/21 09:29:30;;;;;;;0.70;0.70;;;7.90;75.10;;;;;;5023654;28;20896;-64
2023/12/21 09:31:56;;;;;;;0.70;0.70;;;7.90;75.20;;;;;;5043033;28;20528;-63
2023/12/21 09:34:22;;;;;;;0.70;0.70;;;7.90;75.30;;;;;;5019610;28;20112;-65
2023/12/21 09:36:47;;;;;;;1.95;0.73;;;7.90;75.40;;;;;;5039067;28;20413;-64
2023/12/21 09:39:13;;;;;;;1.30;0.70;;;8.00;75.30;;;;;;5039322;28;20033;-65
2023/12/21 09:41:39;;;;;;;0.60;0.60;;;8.00;75.50;;;;;;5035929;28;20458;-65
2023/12/21 09:44:05;;;;;;;0.80;0.80;;;8.00;75.40;;;;;;5020678;28;20045;-65
2023/12/21 09:46:39;;;;;;;0.60;0.60;;;8.00;75.40;;;;;;4968948;28;20017;-64
2023/12/21 09:49:06;;;;;;;0.70;0.70;;;8.00;75.50;;;;;;5041997;28;20025;-65
2023/12/21 09:51:34;;;;;;;0.70;0.70;;;8.00;75.70;;;;;;5043037;28;20087;-63
2023/12/21 09:54:01;;;;;;;0.70;0.70;;;8.00;75.60;;;;;;5023498;28;20049;-64
2023/12/21 09:56:28;;;;;;;1.15;0.80;;;8.00;75.70;;;;;;5039383;28;20037;-63
2023/12/21 09:58:56;;;;;;;1.17;0.70;;;8.10;75.60;;;;;;5037584;28;20089;-64
2023/12/21 10:01:22;;;;;;;1.20;0.90;;;8.10;75.70;;;;;;5040925;28;20044;-68
2023/12/21 10:03:47;;;;;;;1.02;0.90;;;8.10;75.70;;;;;;5042764;28;21091;-65
2023/12/21 10:06:14;;;;;;;0.77;0.70;;;8.10;75.70;;;;;;5042368;28;20024;-64
2023/12/21 10:08:41;;;;;;;1.33;1.23;;;8.20;75.70;;;;;;5032249;28;20079;-63
2023/12/21 10:11:07;;;;;;;1.10;1.00;;;8.20;75.80;;;;;;5042807;28;20032;-65
2023/12/21 10:13:34;;;;;;;0.70;0.70;;;8.20;75.70;;;;;;5036538;28;20029;-63
2023/12/21 10:16:01;;;;;;;2.28;0.80;;;8.30;76.30;;;;;;5037759;28;20048;-63
2023/12/21 10:18:27;;;;;;;1.70;1.00;;;8.30;75.60;;;;;;5040898;28;20513;-64
2023/12/21 10:20:56;;;;;;;2.20;0.90;;;8.30;75.60;;;;;;5039325;28;20021;-63
2023/12/21 10:23:21;;;;;;;1.20;1.13;;;8.30;75.70;;;;;;5041922;28;20412;-64
2023/12/21 10:25:48;;;;;;;0.82;0.82;;;8.30;75.60;;;;;;5031135;28;20029;-64
2023/12/21 10:28:14;;;;;;;1.25;0.80;;;8.40;75.50;;;;;;5040610;28;20191;-64
2023/12/21 10:30:40;;;;;;;0.70;0.70;;;8.40;75.50;;;;;;5035153;28;20031;-64
2023/12/21 10:33:09;;;;;;;1.30;1.00;;;8.40;75.50;;;;;;5038047;28;20047;-64
2023/12/21 10:35:37;;;;;;;1.08;0.90;;;8.50;75.60;;;;;;5037680;28;20028;-64
2023/12/21 10:38:03;;;;;;;0.70;0.70;;;8.50;75.70;;;;;;5037528;28;20021;-64
2023/12/21 10:40:29;;;;;;;0.70;0.70;;;8.50;75.60;;;;;;5043089;28;20029;-64
2023/12/21 10:42:56;;;;;;;0.57;0.57;;;8.50;75.70;;;;;;5042597;28;20025;-63
2023/12/21 10:45:22;;;;;;;0.60;0.60;;;8.60;75.70;;;;;;4955312;28;20048;-64
2023/12/21 10:47:52;;;;;;;2.05;0.70;;;8.60;75.60;;;;;;5038247;28;20530;-63
2023/12/21 10:50:19;;;;;;;0.77;0.60;;;8.60;75.50;;;;;;5013228;28;20056;-65
2023/12/21 10:52:47;;;;;;;1.25;0.73;;;8.60;75.40;;;;;;5040999;28;20037;-64
2023/12/21 10:55:17;;;;;;;1.27;1.00;;;8.70;75.50;;;;;;5037878;28;20103;-65
2023/12/21 10:57:45;;;;;;;0.60;0.60;;;8.70;75.50;;;;;;5037022;28;20471;-64
2023/12/21 11:00:15;;;;;;;0.68;0.68;;;8.70;75.30;;;;;;5042100;28;20052;-63
2023/12/21 11:02:45;;;;;;;0.65;0.65;;;8.80;75.40;;;;;;5042727;28;20032;-64
2023/12/21 11:05:11;;;;;;;0.50;0.50;;;8.80;75.50;;;;;;5039626;28;20041;-64
2023/12/21 11:07:40;;;;;;;0.60;0.60;;;8.80;75.40;;;;;;5037983;28;20034;-65
2023/12/21 11:10:07;;;;;;;0.93;0.50;;;8.80;75.30;;;;;;5039692;28;20376;-64
2023/12/21 11:12:33;;;;;;;0.60;0.60;;;8.90;75.30;;;;;;5040398;28;20036;-63
2023/12/21 11:14:59;;;;;;;0.70;0.70;;;8.90;75.20;;;;;;5020678;28;20035;-65
2023/12/21 11:17:25;;;;;;;0.70;0.70;;;8.90;75.20;;;;;;5042063;28;20025;-65
2023/12/21 11:19:52;;;;;;;1.80;0.80;;;8.90;75.20;;;;;;5037088;28;20475;-64
2023/12/21 11:22:18;;;;;;;0.60;0.60;;;9.00;75.30;;;;;;5038873;28;20031;-64
2023/12/21 11:24:44;;;;;;;0.73;0.70;;;9.00;75.10;;;;;;5035213;28;20487;-65
2023/12/21 11:27:12;;;;;;;0.65;0.65;;;9.00;75.10;;;;;;5034218;28;20025;-63
2023/12/21 11:29:38;;;;;;;0.70;0.70;;;9.10;75.20;;;;;;5032222;28;20052;-63
2023/12/21 11:32:05;;;;;;;1.05;0.70;;;9.10;75.10;;;;;;5015053;28;20484;-65
2023/12/21 11:34:40;;;;;;;0.70;0.70;;;9.10;75.10;;;;;;5037250;28;20821;-63
2023/12/21 11:37:37;;;;;;;2.20;1.00;;;9.10;75.30;;;;;;5035053;28;20144;-64
2023/12/21 11:40:04;;;;;;;0.60;0.60;;;9.20;75.50;;;;;;5022323;28;20041;-64
2023/12/21 11:42:34;;;;;;;0.63;0.63;;;9.20;75.10;;;;;;5037601;28;20036;-64
2023/12/21 11:45:03;;;;;;;1.02;0.70;;;9.30;75.20;;;;;;4948294;28;20614;-63
2023/12/21 11:47:30;;;;;;;0.60;0.60;;;9.30;75.10;;;;;;5035661;28;20021;-63
2023/12/21 11:50:09;;;;;;;0.70;0.70;;;9.30;75.10;;;;;;5037830;28;20036;-64
2023/12/21 11:52:36;;;;;;;0.65;0.65;;;9.40;75.20;;;;;;5038231;28;21163;-64
2023/12/21 11:55:02;;;;;;;0.75;0.68;;;9.40;75.00;;;;;;5041050;28;20571;-64
2023/12/21 11:57:29;;;;;;;0.60;0.60;;;9.40;75.00;;;;;;5039502;28;20048;-64
2023/12/21 12:00:07;;;;;;;0.57;0.50;;;9.50;75.10;;;;;;5036224;28;20519;-63
2023/12/21 12:02:34;;;;;;;0.70;0.70;;;9.50;75.10;;;;;;5037652;28;20033;-64
2023/12/21 12:05:02;;;;;;;1.02;0.93;;;9.60;75.00;;;;;;5041949;28;20052;-63
2023/12/21 12:07:31;;;;;;;0.73;0.73;;;9.60;75.00;;;;;;5041242;28;20038;-63
2023/12/21 12:09:57;;;;;;;0.90;0.90;;;9.60;74.90;;;;;;5037674;28;20083;-64
2023/12/21 12:12:23;;;;;;;1.73;1.45;;;9.70;74.90;;;;;;5035448;28;20025;-63
2023/12/21 12:14:48;;;;;;;3.95;3.13;;;9.70;74.70;;;;;;5018701;28;20135;-63
2023/12/21 12:17:14;;;;;;;2.90;1.08;;;9.70;74.70;;;;;;5041185;28;20040;-64
2023/12/21 12:19:40;;;;;;;1.50;1.13;;;9.80;74.50;;;;;;5032952;28;20033;-63
2023/12/21 12:22:05;;;;;;;2.00;1.30;;;9.80;74.60;;;;;;5036784;28;20034;-66
2023/12/21 12:24:31;;;;;;;1.52;0.90;;;9.90;74.60;;;;;;5034191;28;20045;-63
2023/12/21 12:26:57;;;;;;;0.90;0.80;;;9.90;74.50;;;;;;5034741;28;20079;-64
2023/12/21 12:29:22;;;;;;;0.77;0.77;;;10.00;74.50;;;;;;5041723;28;20500;-63
2023/12/21 12:31:48;;;;;;;0.60;0.60;;;10.10;74.50;;;;;;5037686;28;20479;-63
2023/12/21 12:34:15;;;;;;;0.80;0.80;;;10.10;74.40;;;;;;5038769;28;20392;-65
2023/12/21 12:36:41;;;;;;;0.60;0.60;;;10.10;74.30;;;;;;5035243;28;20030;-63
2023/12/21 12:39:09;;;;;;;1.50;0.60;;;10.10;74.20;;;;;;5042251;28;20033;-64
2023/12/21 12:41:35;;;;;;;0.60;0.60;;;10.20;74.20;;;;;;5035423;28;20030;-63
2023/12/21 12:44:01;;;;;;;0.63;0.63;;;10.10;74.20;;;;;;5039318;28;20052;-64
2023/12/21 12:46:28;;;;;;;0.60;0.60;;;10.10;74.40;;;;;;4954875;28;20061;-64
2023/12/21 12:48:54;;;;;;;0.60;0.60;;;10.20;74.60;;;;;;5023337;28;20112;-64
2023/12/21 12:51:22;;;;;;;0.60;0.60;;;10.10;74.50;;;;;;5041305;28;20338;-63
2023/12/21 12:53:47;;;;;;;0.70;0.70;;;10.20;74.70;;;;;;5032796;28;20049;-65